Koosharem, UT (84744)

2:43 PM MST on February 24, 2017 (GMT -0700)
ME3829 | | Change Station
Active Advisory: Winter Weather Statement

Elev 7094 ft 38.40 °N, 111.66 °W | Updated 18 minutes ago

Partly Cloudy
Partly Cloudy
25.0 °F
Feels Like 14 °F
N
12.0
Wind Variable Wind from WNW
Gusts 20.0 mph

Today
High -- | Low -- °F
--% Chance of Precip.
Yesterday
High -- | Low -- °F
Precip. -- in
Pressure 30.04 in
Visibility 10.0 miles
Clouds Clear
Windchill 14 °F
Dew Point 3 °F
Humidity 38%
Rainfall 0.01 in
Snow Depth Not available.
7:06 AM 6:15 PM
Waning Crescent, 3% visible
METAR KBCE 242053Z AUTO 32011KT 10SM CLR M06/M17 A2997 RMK AO2 UPE1956 SLP170 P0000 60000 T10561167 50000 TSNO
Pressure 30.04 in
Visibility 10.0 miles
Clouds Clear
Windchill 14 °F
Dew Point 3 °F
Humidity 38%
Rainfall 0.01 in
Snow Depth Not available.
7:06 AM 6:15 PM
Waning Crescent, 3% visible
METAR KBCE 242053Z AUTO 32011KT 10SM CLR M06/M17 A2997 RMK AO2 UPE1956 SLP170 P0000 60000 T10561167 50000 TSNO

Get Your Daily Forecast Email!

Thanks for signing up!

Be on the lookout for a verification email in your inbox.

You'll start receiving the daily forecast at 8 AM.

×

10-Day Weather Forecast

Almanac

Astronomy

Feb. 24, 2017 Rise Set
Actual Time
Civil Twilight
Nautical Twilight
Astronomical Twilight
Moon
Length of Visible Light
Length of Day
Tomorrow will be .
, % of the Moon is Illuminated

Today's Extremes

State Highs State Lows

Community

WunderPhotos

Upload Photos

1,962,540 photos uploaded!

WunderBlog® & News

Nearby

Air Quality

  Air Quality AQ Index Pollutant
Not available.

Snow Depth

Station Depth Elevation

Earthquake Activity

City Distance Mag. Time & Date
Minimum magnitude displayed is 2.5.

Coastal Water Temperatures

Place Temperature

Stations

Nearby Weather Stations

Station Location Temp. Windchill Dew Point Humidity Wind Precip. Elev Updated Type
                   

Watches & Warnings

Winter Weather Statement
Issued: 2:35 PM MST Feb. 24, 2017 – National Weather Service

... Winter Weather Advisory is cancelled...

The National Weather Service in Salt Lake City has cancelled the
Winter Weather Advisory for the Wasatch mountains, western Uinta
Mountains, Wasatch Plateau and Book Cliffs, and the central
mountains. Snow showers will continue to diminish this evening.


Rogowski

For more information from NOAA/National Weather Service visit...